Time;durP1;ratioP1;P1;durP2;ratioP2;P2;SDS_P1;SDS_P2;PMS_P1;PMS_P2;Temp;Humidity;BMP_temperature;BMP_pressure;BME280_temperature;BME280_humidity;BME280_pressure;Samples;Min_cycle;Max_cycle;Signal;HPM_P1;HPM_P2
2021/07/29 00:01:19;;;;;;;7.22;2.70;;;;;;;;;;5021854;28;20192;-62
2021/07/29 00:03:47;;;;;;;23.08;3.53;;;;;;;;;;5027933;28;20033;-62
2021/07/29 00:06:15;;;;;;;9.73;3.55;;;;;;;;;;5036138;28;20502;-62
2021/07/29 00:08:43;;;;;;;12.90;2.78;;;;;;;;;;5023730;28;20032;-62
2021/07/29 00:11:10;;;;;;;12.48;3.03;;;;;;;;;;5025436;28;20021;-62
2021/07/29 00:13:36;;;;;;;6.88;2.65;;;;;;;;;;5034665;28;20029;-62
2021/07/29 00:16:07;;;;;;;6.70;2.55;;;;;;;;;;5036268;28;20036;-62
2021/07/29 00:21:20;;;;;;;6.85;2.95;;;;;;;;;;5037330;28;20032;-62
2021/07/29 00:23:50;;;;;;;8.55;3.00;;;;;;;;;;5016536;28;20039;-61
2021/07/29 00:26:17;;;;;;;5.10;3.15;;;;;;;;;;5036500;28;20145;-61
2021/07/29 00:28:42;;;;;;;12.25;3.30;;;;;;;;;;5035125;28;20940;-60
2021/07/29 00:31:08;;;;;;;6.80;3.35;;;;;;;;;;5027162;28;20037;-61
2021/07/29 00:33:36;;;;;;;8.23;3.53;;;;;;;;;;5038057;28;20123;-62
2021/07/29 00:36:04;;;;;;;7.03;3.70;;;;;;;;;;5036210;28;20029;-62
2021/07/29 00:38:35;;;;;;;7.40;3.63;;;;;;;;;;5020887;28;20940;-62
2021/07/29 00:41:03;;;;;;;5.95;3.03;;;;;;;;;;5036732;28;22007;-61
2021/07/29 00:43:31;;;;;;;17.35;4.63;;;;;;;;;;5019202;28;20055;-62
2021/07/29 00:46:01;;;;;;;8.30;3.90;;;;;;;;;;5019616;28;20037;-61
2021/07/29 00:48:27;;;;;;;10.55;4.05;;;;;;;;;;5018005;28;20052;-60
2021/07/29 00:50:55;;;;;;;14.73;3.60;;;;;;;;;;5020113;28;20029;-61
2021/07/29 00:53:23;;;;;;;8.30;3.10;;;;;;;;;;5035130;28;20044;-61
2021/07/29 00:55:51;;;;;;;7.57;3.58;;;;;;;;;;5018576;28;20060;-61
2021/07/29 00:58:19;;;;;;;11.68;3.35;;;;;;;;;;5036856;28;20131;-60
2021/07/29 01:00:44;;;;;;;9.27;4.03;;;;;;;;;;5017683;28;20033;-61
2021/07/29 01:03:12;;;;;;;42.25;5.80;;;;;;;;;;5037530;28;20029;-58
2021/07/29 01:05:38;;;;;;;9.30;4.35;;;;;;;;;;4998490;28;20040;-57
2021/07/29 01:08:06;;;;;;;10.43;3.72;;;;;;;;;;5014031;28;20102;-58
2021/07/29 01:10:33;;;;;;;40.00;4.70;;;;;;;;;;5010661;28;20036;-59
2021/07/29 01:13:02;;;;;;;11.75;4.43;;;;;;;;;;5036395;28;20108;-58
2021/07/29 01:15:30;;;;;;;10.38;4.13;;;;;;;;;;5035896;28;20036;-59
2021/07/29 01:18:00;;;;;;;6.38;3.55;;;;;;;;;;5036741;28;20021;-58
2021/07/29 01:20:28;;;;;;;17.65;3.53;;;;;;;;;;5032057;28;20033;-58
2021/07/29 01:22:54;;;;;;;11.63;3.65;;;;;;;;;;5033517;28;20042;-62
2021/07/29 01:25:23;;;;;;;8.23;3.60;;;;;;;;;;5035295;28;20043;-61
2021/07/29 01:27:51;;;;;;;9.95;3.70;;;;;;;;;;5024521;28;20025;-60
2021/07/29 01:30:16;;;;;;;8.95;4.25;;;;;;;;;;5007977;28;20067;-60
2021/07/29 01:32:44;;;;;;;24.95;3.90;;;;;;;;;;5035387;28;20934;-59
2021/07/29 01:35:11;;;;;;;12.52;3.78;;;;;;;;;;5035794;28;20124;-59
2021/07/29 01:37:40;;;;;;;13.73;4.00;;;;;;;;;;5037058;28;20496;-60
2021/07/29 01:40:06;;;;;;;13.18;3.47;;;;;;;;;;5018275;28;20555;-60
2021/07/29 01:42:36;;;;;;;14.07;2.95;;;;;;;;;;5036740;28;20029;-60
2021/07/29 01:45:02;;;;;;;6.57;2.35;;;;;;;;;;5017055;28;20029;-60
2021/07/29 01:47:30;;;;;;;6.90;2.00;;;;;;;;;;5017281;28;20064;-61
2021/07/29 01:49:56;;;;;;;4.93;2.00;;;;;;;;;;5023817;28;20064;-63
2021/07/29 01:52:21;;;;;;;1.85;1.70;;;;;;;;;;5018933;28;20076;-61
2021/07/29 01:54:49;;;;;;;5.40;2.03;;;;;;;;;;5018822;28;20025;-62
2021/07/29 01:57:17;;;;;;;5.78;1.70;;;;;;;;;;5033466;28;20024;-63
2021/07/29 01:59:45;;;;;;;2.70;1.70;;;;;;;;;;5016920;28;20083;-62
2021/07/29 02:02:13;;;;;;;6.55;2.05;;;;;;;;;;5035016;28;20028;-62
2021/07/29 02:04:38;;;;;;;8.43;1.98;;;;;;;;;;5032473;28;20033;-63
2021/07/29 02:07:04;;;;;;;15.73;2.42;;;;;;;;;;5018753;28;23241;-62
2021/07/29 02:09:30;;;;;;;5.78;2.10;;;;;;;;;;5016291;28;20679;-62
2021/07/29 02:11:55;;;;;;;11.85;2.20;;;;;;;;;;5025978;28;20033;-63
2021/07/29 02:14:22;;;;;;;7.60;2.10;;;;;;;;;;5033804;28;20492;-62
2021/07/29 02:16:48;;;;;;;3.55;2.25;;;;;;;;;;5016573;28;20032;-62
2021/07/29 02:19:19;;;;;;;6.68;2.45;;;;;;;;;;5035322;28;20633;-62
2021/07/29 02:21:47;;;;;;;7.35;2.28;;;;;;;;;;5033816;28;20028;-63
2021/07/29 02:24:13;;;;;;;8.82;2.80;;;;;;;;;;5034956;28;20060;-63
2021/07/29 02:26:41;;;;;;;8.63;3.50;;;;;;;;;;5034425;28;20116;-60
2021/07/29 02:29:14;;;;;;;12.48;3.13;;;;;;;;;;5034772;28;20032;-59
2021/07/29 02:31:41;;;;;;;11.02;3.63;;;;;;;;;;5037128;28;20226;-59
2021/07/29 02:34:09;;;;;;;15.98;3.20;;;;;;;;;;5020675;28;20025;-59
2021/07/29 02:36:35;;;;;;;18.65;3.47;;;;;;;;;;5018386;28;20046;-59
2021/07/29 02:39:02;;;;;;;18.05;3.65;;;;;;;;;;5027222;28;20028;-60
2021/07/29 02:41:28;;;;;;;11.63;3.53;;;;;;;;;;5037509;28;20040;-61
2021/07/29 02:44:04;;;;;;;9.65;3.50;;;;;;;;;;5024231;28;20046;-61
2021/07/29 02:46:30;;;;;;;3.33;2.22;;;;;;;;;;5004432;28;20498;-62
2021/07/29 02:48:57;;;;;;;5.22;1.90;;;;;;;;;;5038308;28;20045;-63
2021/07/29 02:51:23;;;;;;;2.97;1.40;;;;;;;;;;5004899;28;20036;-63
2021/07/29 02:53:48;;;;;;;4.20;1.80;;;;;;;;;;5027890;28;20505;-64
2021/07/29 02:56:14;;;;;;;3.45;1.40;;;;;;;;;;5011422;28;20915;-66
2021/07/29 02:58:43;;;;;;;6.38;1.42;;;;;;;;;;5006121;28;20059;-63
2021/07/29 03:01:14;;;;;;;5.18;1.08;;;;;;;;;;5021289;28;20040;-61
2021/07/29 03:03:39;;;;;;;1.48;1.20;;;;;;;;;;5020998;28;20041;-65
2021/07/29 03:06:07;;;;;;;2.50;1.15;;;;;;;;;;5035071;28;20028;-64
2021/07/29 03:08:34;;;;;;;0.90;0.80;;;;;;;;;;5022371;28;20044;-65
2021/07/29 03:11:01;;;;;;;4.13;1.20;;;;;;;;;;5036808;28;20036;-66
2021/07/29 03:13:27;;;;;;;1.23;0.95;;;;;;;;;;5003804;28;20032;-65
2021/07/29 03:15:55;;;;;;;0.80;0.80;;;;;;;;;;4995279;28;20589;-64
2021/07/29 03:18:24;;;;;;;1.58;1.20;;;;;;;;;;5038180;28;20056;-64
2021/07/29 03:20:57;;;;;;;2.20;1.17;;;;;;;;;;5018111;28;20043;-64
2021/07/29 03:23:22;;;;;;;2.35;1.20;;;;;;;;;;5006187;28;22013;-65
2021/07/29 03:25:49;;;;;;;5.97;1.27;;;;;;;;;;5018747;28;20028;-65
2021/07/29 03:28:15;;;;;;;1.70;1.00;;;;;;;;;;5019316;28;20041;-64
2021/07/29 03:30:43;;;;;;;1.55;0.75;;;;;;;;;;5038942;28;20028;-66
2021/07/29 03:33:10;;;;;;;5.18;1.08;;;;;;;;;;5018970;28;20595;-67
2021/07/29 03:35:39;;;;;;;5.50;1.60;;;;;;;;;;5036599;28;22010;-67
2021/07/29 03:38:05;;;;;;;2.00;1.23;;;;;;;;;;5028499;28;20258;-66
2021/07/29 03:40:31;;;;;;;0.73;0.68;;;;;;;;;;5035780;28;20033;-65
2021/07/29 03:43:02;;;;;;;11.27;1.30;;;;;;;;;;5023245;28;20028;-64
2021/07/29 03:45:31;;;;;;;3.53;1.40;;;;;;;;;;5021111;28;20029;-63
2021/07/29 03:47:57;;;;;;;1.23;1.13;;;;;;;;;;5013483;28;20101;-68
2021/07/29 03:50:23;;;;;;;1.63;1.20;;;;;;;;;;5001298;28;20025;-64
2021/07/29 03:52:49;;;;;;;2.03;1.08;;;;;;;;;;4995140;28;20057;-67
2021/07/29 03:55:19;;;;;;;1.90;1.30;;;;;;;;;;5000236;28;20025;-64
2021/07/29 03:57:44;;;;;;;1.33;1.10;;;;;;;;;;4995306;28;23082;-66
2021/07/29 04:00:15;;;;;;;1.25;1.02;;;;;;;;;;5004371;28;20120;-64
2021/07/29 04:02:40;;;;;;;3.03;1.50;;;;;;;;;;4995722;28;20037;-66
2021/07/29 04:05:07;;;;;;;4.03;1.27;;;;;;;;;;5002778;28;20979;-65
2021/07/29 04:07:38;;;;;;;4.53;1.23;;;;;;;;;;4994307;28;20038;-64
2021/07/29 04:10:04;;;;;;;2.08;0.98;;;;;;;;;;4981050;28;20040;-63
2021/07/29 04:12:30;;;;;;;6.68;1.15;;;;;;;;;;4994342;28;20077;-66
2021/07/29 04:14:56;;;;;;;2.17;1.20;;;;;;;;;;4996625;28;20397;-64
2021/07/29 04:17:21;;;;;;;5.35;1.92;;;;;;;;;;4998282;28;20576;-65
2021/07/29 04:19:47;;;;;;;3.75;1.10;;;;;;;;;;4996577;28;20087;-65
2021/07/29 04:22:16;;;;;;;6.03;1.52;;;;;;;;;;4996103;28;20026;-65
2021/07/29 04:24:42;;;;;;;5.75;1.23;;;;;;;;;;4997570;28;20064;-61
2021/07/29 04:27:10;;;;;;;2.42;1.85;;;;;;;;;;4997148;28;20029;-65
2021/07/29 04:29:35;;;;;;;7.88;1.55;;;;;;;;;;4995278;28;20037;-64
2021/07/29 04:32:01;;;;;;;2.35;1.55;;;;;;;;;;4997578;28;20030;-65
2021/07/29 04:34:27;;;;;;;6.30;1.50;;;;;;;;;;5002160;28;20051;-66
2021/07/29 04:36:52;;;;;;;6.68;1.08;;;;;;;;;;4986262;28;20585;-64
2021/07/29 04:39:20;;;;;;;8.73;1.00;;;;;;;;;;4987199;28;20041;-64
2021/07/29 04:41:46;;;;;;;4.40;1.20;;;;;;;;;;5011727;28;20050;-65
2021/07/29 04:44:12;;;;;;;7.53;2.15;;;;;;;;;;4998235;28;20144;-60
2021/07/29 04:46:38;;;;;;;2.45;1.40;;;;;;;;;;5001288;28;21073;-65
2021/07/29 04:49:07;;;;;;;3.13;1.05;;;;;;;;;;4995049;28;20137;-65
2021/07/29 04:51:33;;;;;;;4.57;1.15;;;;;;;;;;4996062;28;20620;-65
2021/07/29 04:53:59;;;;;;;1.35;1.00;;;;;;;;;;4993473;28;20097;-64
2021/07/29 04:56:27;;;;;;;1.65;0.95;;;;;;;;;;4983805;28;20025;-63
2021/07/29 04:58:55;;;;;;;8.20;1.33;;;;;;;;;;4991839;28;20041;-66
2021/07/29 05:01:22;;;;;;;5.55;1.25;;;;;;;;;;4992062;28;21668;-65
2021/07/29 05:03:50;;;;;;;4.63;1.55;;;;;;;;;;4997064;28;20455;-65
2021/07/29 05:06:15;;;;;;;9.23;1.40;;;;;;;;;;4978493;28;20056;-67
2021/07/29 05:08:44;;;;;;;3.25;1.08;;;;;;;;;;4979968;28;20457;-64
2021/07/29 05:11:13;;;;;;;4.20;0.95;;;;;;;;;;4993574;28;20025;-66
2021/07/29 05:13:46;;;;;;;6.22;1.05;;;;;;;;;;4994459;28;20044;-64
2021/07/29 05:16:11;;;;;;;4.97;1.23;;;;;;;;;;4995464;28;20033;-66
2021/07/29 05:18:39;;;;;;;5.60;1.05;;;;;;;;;;4995253;28;20107;-66
2021/07/29 05:21:07;;;;;;;4.60;1.48;;;;;;;;;;4993697;28;20044;-63
2021/07/29 05:23:32;;;;;;;3.58;1.17;;;;;;;;;;4992618;28;20616;-64
2021/07/29 05:26:01;;;;;;;2.75;1.00;;;;;;;;;;4993116;28;20029;-66
2021/07/29 05:28:28;;;;;;;5.60;1.20;;;;;;;;;;4995812;28;20437;-65
2021/07/29 05:30:54;;;;;;;2.20;0.82;;;;;;;;;;4983024;28;20037;-66
2021/07/29 05:33:20;;;;;;;6.10;0.75;;;;;;;;;;4996521;28;20068;-66
2021/07/29 05:35:46;;;;;;;4.15;0.88;;;;;;;;;;4994209;28;20756;-65
2021/07/29 05:38:12;;;;;;;2.35;0.63;;;;;;;;;;4996369;28;20127;-68
2021/07/29 05:40:40;;;;;;;8.88;1.45;;;;;;;;;;4994134;28;20038;-67
2021/07/29 05:43:08;;;;;;;4.68;1.10;;;;;;;;;;4996411;28;20106;-65
2021/07/29 05:45:34;;;;;;;4.82;0.88;;;;;;;;;;4993033;28;20034;-67
2021/07/29 05:47:59;;;;;;;8.93;1.10;;;;;;;;;;5006294;28;20080;-66
2021/07/29 05:50:30;;;;;;;3.65;0.90;;;;;;;;;;5033618;28;20720;-65
2021/07/29 05:52:59;;;;;;;2.42;0.60;;;;;;;;;;5034806;28;20043;-65
2021/07/29 05:55:27;;;;;;;4.38;1.33;;;;;;;;;;5033613;28;20045;-64
2021/07/29 05:57:55;;;;;;;7.00;1.20;;;;;;;;;;5034842;28;20647;-64
2021/07/29 06:00:23;;;;;;;8.77;1.23;;;;;;;;;;5016086;28;20040;-66
2021/07/29 06:02:51;;;;;;;4.95;0.82;;;;;;;;;;5033177;28;20020;-65
2021/07/29 06:05:17;;;;;;;5.72;0.98;;;;;;;;;;5033697;28;20139;-65
2021/07/29 06:07:45;;;;;;;5.35;1.38;;;;;;;;;;5026041;28;20036;-66
2021/07/29 06:10:11;;;;;;;4.95;1.33;;;;;;;;;;5023534;28;20036;-65
2021/07/29 06:12:37;;;;;;;6.40;1.25;;;;;;;;;;5021394;28;20570;-68
2021/07/29 06:15:05;;;;;;;4.63;1.00;;;;;;;;;;5028692;28;20043;-66
2021/07/29 06:17:33;;;;;;;2.75;0.98;;;;;;;;;;5038151;28;20041;-67
2021/07/29 06:20:06;;;;;;;5.35;0.93;;;;;;;;;;5022150;28;20136;-65
2021/07/29 06:22:32;;;;;;;5.28;1.10;;;;;;;;;;5036520;28;20036;-67
2021/07/29 06:24:58;;;;;;;3.70;0.88;;;;;;;;;;5039086;28;20415;-67
2021/07/29 06:27:24;;;;;;;5.30;1.00;;;;;;;;;;5020908;28;20113;-67
2021/07/29 06:29:50;;;;;;;6.22;1.17;;;;;;;;;;5020503;28;20036;-66
2021/07/29 06:32:15;;;;;;;10.00;1.00;;;;;;;;;;5024809;28;20041;-64
2021/07/29 06:34:43;;;;;;;3.35;1.27;;;;;;;;;;5036420;28;21969;-66
2021/07/29 06:37:08;;;;;;;7.20;1.23;;;;;;;;;;5019667;28;20036;-63
2021/07/29 06:39:38;;;;;;;4.10;0.90;;;;;;;;;;5021989;28;20152;-64
2021/07/29 06:42:09;;;;;;;6.15;1.60;;;;;;;;;;5034634;28;20106;-65
2021/07/29 06:44:37;;;;;;;4.25;0.93;;;;;;;;;;5024558;28;20044;-66
2021/07/29 06:47:03;;;;;;;5.28;1.10;;;;;;;;;;5016935;28;20064;-66
2021/07/29 06:49:31;;;;;;;4.50;0.90;;;;;;;;;;5004831;28;20087;-63
2021/07/29 06:52:01;;;;;;;4.95;1.23;;;;;;;;;;5020278;28;20104;-65
2021/07/29 06:54:26;;;;;;;4.18;0.95;;;;;;;;;;5036933;28;20048;-63
2021/07/29 06:56:52;;;;;;;4.20;1.10;;;;;;;;;;5020508;28;20552;-62
2021/07/29 06:59:23;;;;;;;3.58;1.08;;;;;;;;;;5020393;28;20029;-66
2021/07/29 07:01:55;;;;;;;7.97;1.17;;;;;;;;;;5003016;28;20071;-65
2021/07/29 07:04:21;;;;;;;8.23;1.20;;;;;;;;;;5004716;28;20043;-63
2021/07/29 07:06:49;;;;;;;4.30;1.30;;;;;;;;;;5033320;28;20021;-66
2021/07/29 07:09:15;;;;;;;13.27;1.40;;;;;;;;;;5016934;28;20156;-65
2021/07/29 07:11:40;;;;;;;6.65;1.20;;;;;;;;;;5016689;28;20021;-65
2021/07/29 07:14:09;;;;;;;3.40;0.88;;;;;;;;;;5004549;28;20605;-65
2021/07/29 07:16:37;;;;;;;2.75;0.95;;;;;;;;;;5026168;28;20115;-65
2021/07/29 07:19:08;;;;;;;10.70;1.40;;;;;;;;;;5017753;28;20040;-66
2021/07/29 07:21:34;;;;;;;7.95;1.33;;;;;;;;;;5015060;28;20400;-64
2021/07/29 07:24:02;;;;;;;9.80;1.48;;;;;;;;;;5019148;28;20747;-64
2021/07/29 07:26:30;;;;;;;6.28;1.45;;;;;;;;;;5034096;28;20115;-62
2021/07/29 07:28:58;;;;;;;8.27;1.67;;;;;;;;;;5018758;28;20033;-64
2021/07/29 07:31:26;;;;;;;5.85;1.08;;;;;;;;;;5023042;28;20140;-65
2021/07/29 07:33:52;;;;;;;6.47;1.48;;;;;;;;;;5036367;28;20034;-64
2021/07/29 07:36:20;;;;;;;7.40;1.30;;;;;;;;;;5034144;28;20032;-66
2021/07/29 07:38:50;;;;;;;12.50;1.80;;;;;;;;;;5016638;28;20063;-64
2021/07/29 07:41:17;;;;;;;6.53;0.95;;;;;;;;;;5019338;28;20063;-64
2021/07/29 07:43:47;;;;;;;4.40;1.25;;;;;;;;;;5036376;28;20035;-64
2021/07/29 07:46:17;;;;;;;4.85;1.23;;;;;;;;;;5006655;28;20086;-64
2021/07/29 07:48:47;;;;;;;9.23;1.27;;;;;;;;;;5008782;28;20053;-63
2021/07/29 07:51:15;;;;;;;5.18;1.13;;;;;;;;;;5016301;28;20025;-63
2021/07/29 07:53:41;;;;;;;8.02;1.60;;;;;;;;;;5023388;28;21991;-62
2021/07/29 07:56:06;;;;;;;5.95;1.17;;;;;;;;;;5034733;28;20045;-64
2021/07/29 07:58:35;;;;;;;5.30;1.13;;;;;;;;;;5034609;28;20036;-64
2021/07/29 08:01:04;;;;;;;8.85;1.20;;;;;;;;;;5034974;28;20556;-62
2021/07/29 08:03:32;;;;;;;5.55;1.15;;;;;;;;;;5006950;28;20175;-65
2021/07/29 08:06:00;;;;;;;6.57;0.98;;;;;;;;;;5015098;28;21635;-65
2021/07/29 08:08:28;;;;;;;5.30;1.35;;;;;;;;;;5033084;28;20040;-64
2021/07/29 08:10:54;;;;;;;5.70;1.30;;;;;;;;;;5016684;28;20907;-66
2021/07/29 08:13:24;;;;;;;7.28;1.50;;;;;;;;;;5002944;28;20041;-64
2021/07/29 08:15:53;;;;;;;7.90;1.30;;;;;;;;;;5006756;28;20139;-63
2021/07/29 08:18:19;;;;;;;6.38;1.30;;;;;;;;;;5015654;28;20125;-64
2021/07/29 08:20:44;;;;;;;4.30;1.20;;;;;;;;;;4985710;28;20036;-65
2021/07/29 08:23:10;;;;;;;7.00;1.27;;;;;;;;;;5033343;28;20481;-63
2021/07/29 08:25:36;;;;;;;7.00;1.08;;;;;;;;;;5033335;28;20551;-62
2021/07/29 08:28:01;;;;;;;4.82;1.00;;;;;;;;;;5034448;28;20033;-63
2021/07/29 08:30:29;;;;;;;5.00;1.20;;;;;;;;;;5010701;28;20120;-63
2021/07/29 08:32:55;;;;;;;7.15;1.33;;;;;;;;;;5016982;28;20538;-65
2021/07/29 08:35:20;;;;;;;3.30;1.20;;;;;;;;;;5032955;28;20545;-64
2021/07/29 08:37:48;;;;;;;5.10;0.82;;;;;;;;;;5005194;28;20043;-65
2021/07/29 08:40:20;;;;;;;4.32;1.20;;;;;;;;;;5035839;28;22132;-64
2021/07/29 08:42:46;;;;;;;7.72;1.25;;;;;;;;;;5035525;28;20037;-64
2021/07/29 08:45:12;;;;;;;11.40;1.52;;;;;;;;;;5034863;28;20035;-64
2021/07/29 08:47:44;;;;;;;2.45;1.10;;;;;;;;;;5034210;28;20049;-62
2021/07/29 08:50:10;;;;;;;5.93;1.20;;;;;;;;;;5034508;28;20678;-64
2021/07/29 08:52:36;;;;;;;7.68;1.73;;;;;;;;;;5004108;28;20033;-63
2021/07/29 08:55:04;;;;;;;5.88;1.30;;;;;;;;;;5025231;28;20131;-63
2021/07/29 08:57:33;;;;;;;6.03;1.25;;;;;;;;;;5034570;28;20472;-67
2021/07/29 09:00:03;;;;;;;11.15;1.33;;;;;;;;;;5017608;28;20510;-61
2021/07/29 09:02:29;;;;;;;3.67;1.33;;;;;;;;;;5032198;28;20033;-64
2021/07/29 09:05:15;;;;;;;6.47;1.20;;;;;;;;;;5020342;28;20111;-62
2021/07/29 09:07:40;;;;;;;5.68;1.20;;;;;;;;;;5020925;28;20033;-62
2021/07/29 09:10:24;;;;;;;5.80;1.35;;;;;;;;;;5035749;28;20059;-61
2021/07/29 09:13:05;;;;;;;5.07;1.37;;;;;;;;;;5036400;28;20090;-64
2021/07/29 09:15:33;;;;;;;4.32;1.45;;;;;;;;;;5029459;28;20036;-62
2021/07/29 09:18:05;;;;;;;9.15;1.52;;;;;;;;;;5035956;28;20154;-61
2021/07/29 09:20:33;;;;;;;7.88;0.93;;;;;;;;;;5016813;28;20160;-61
2021/07/29 09:23:13;;;;;;;5.75;1.20;;;;;;;;;;5022207;28;20033;-59
2021/07/29 09:25:42;;;;;;;6.90;1.50;;;;;;;;;;5015509;28;20216;-62
2021/07/29 09:28:10;;;;;;;4.10;1.25;;;;;;;;;;5032758;28;20570;-61
2021/07/29 09:30:38;;;;;;;11.98;1.95;;;;;;;;;;5034474;28;20036;-61
2021/07/29 09:33:16;;;;;;;12.60;1.95;;;;;;;;;;5014808;28;20040;-61
2021/07/29 09:35:43;;;;;;;7.00;1.95;;;;;;;;;;5018050;28;20033;-63
2021/07/29 09:38:21;;;;;;;7.47;1.10;;;;;;;;;;5035039;28;20030;-61
2021/07/29 09:40:59;;;;;;;12.48;1.45;;;;;;;;;;5034161;28;20086;-62
2021/07/29 09:43:32;;;;;;;5.90;1.55;;;;;;;;;;5027479;28;20029;-61
2021/07/29 09:46:15;;;;;;;4.70;1.30;;;;;;;;;;5037466;28;20033;-62
2021/07/29 09:48:46;;;;;;;8.20;1.52;;;;;;;;;;5036663;28;20052;-64
2021/07/29 09:51:14;;;;;;;7.07;1.58;;;;;;;;;;5019010;28;20041;-62
2021/07/29 09:53:41;;;;;;;4.75;1.52;;;;;;;;;;5037640;28;20067;-61
2021/07/29 09:56:07;;;;;;;6.15;0.98;;;;;;;;;;5037740;28;20128;-62
2021/07/29 09:58:37;;;;;;;7.70;1.10;;;;;;;;;;5020681;28;20020;-62
2021/07/29 10:01:05;;;;;;;6.65;1.02;;;;;;;;;;5012651;28;20046;-62
2021/07/29 10:03:33;;;;;;;4.15;1.17;;;;;;;;;;5037073;28;20027;-62
2021/07/29 10:06:06;;;;;;;4.90;0.88;;;;;;;;;;5034914;28;20622;-62
2021/07/29 10:08:34;;;;;;;5.50;1.00;;;;;;;;;;5038851;28;20093;-62
2021/07/29 10:11:04;;;;;;;4.60;0.85;;;;;;;;;;5021709;28;20025;-62
2021/07/29 10:13:36;;;;;;;3.00;0.55;;;;;;;;;;5037742;28;20037;-62
2021/07/29 10:16:06;;;;;;;4.00;0.55;;;;;;;;;;5019948;28;20032;-62
2021/07/29 10:18:54;;;;;;;1.92;0.57;;;;;;;;;;5038047;28;20036;-61
2021/07/29 10:21:30;;;;;;;3.80;0.90;;;;;;;;;;5015069;28;20059;-60
2021/07/29 10:23:57;;;;;;;8.25;0.80;;;;;;;;;;5037270;28;20032;-61
2021/07/29 10:26:23;;;;;;;5.15;0.85;;;;;;;;;;5037258;28;20028;-61
2021/07/29 10:28:49;;;;;;;2.95;0.40;;;;;;;;;;5020221;28;20082;-65
2021/07/29 10:31:16;;;;;;;5.75;0.50;;;;;;;;;;5016280;28;20070;-61
2021/07/29 10:33:42;;;;;;;1.00;0.35;;;;;;;;;;5021241;28;20061;-62
2021/07/29 10:36:08;;;;;;;4.35;0.70;;;;;;;;;;5035665;28;20025;-61
2021/07/29 10:38:39;;;;;;;2.65;0.60;;;;;;;;;;5037915;28;20063;-60
2021/07/29 10:41:23;;;;;;;3.17;0.60;;;;;;;;;;5036930;28;20033;-62
2021/07/29 10:43:51;;;;;;;1.30;0.75;;;;;;;;;;5019302;28;20094;-60
2021/07/29 10:46:19;;;;;;;3.53;0.47;;;;;;;;;;5022542;28;20056;-60
2021/07/29 10:49:12;;;;;;;3.33;0.60;;;;;;;;;;5038568;28;20052;-60
2021/07/29 10:51:38;;;;;;;6.88;1.02;;;;;;;;;;5034412;28;20070;-60
2021/07/29 10:54:08;;;;;;;4.38;0.65;;;;;;;;;;5001686;28;20119;-61
2021/07/29 10:56:36;;;;;;;4.85;0.82;;;;;;;;;;5036429;28;20086;-60
2021/07/29 10:59:05;;;;;;;2.70;0.80;;;;;;;;;;5036533;28;20025;-63
2021/07/29 11:01:47;;;;;;;2.97;0.50;;;;;;;;;;5035774;28;20029;-61
2021/07/29 11:04:15;;;;;;;3.85;0.70;;;;;;;;;;5035843;28;20024;-62
2021/07/29 11:06:55;;;;;;;5.30;0.90;;;;;;;;;;5016039;28;20025;-61
2021/07/29 11:09:21;;;;;;;2.63;0.73;;;;;;;;;;5033778;28;20040;-60
2021/07/29 11:11:50;;;;;;;4.18;0.95;;;;;;;;;;5018157;28;20281;-59
2021/07/29 11:14:25;;;;;;;2.88;0.80;;;;;;;;;;5006147;28;20028;-61
2021/07/29 11:16:55;;;;;;;4.35;0.85;;;;;;;;;;5025845;28;20041;-62
2021/07/29 11:19:21;;;;;;;4.38;0.55;;;;;;;;;;5035240;28;20049;-61
2021/07/29 11:22:00;;;;;;;1.63;0.70;;;;;;;;;;5032215;28;20087;-62
2021/07/29 11:24:25;;;;;;;4.57;0.82;;;;;;;;;;5036953;28;20119;-59
2021/07/29 11:26:56;;;;;;;1.60;0.75;;;;;;;;;;5018539;28;20048;-61
2021/07/29 11:29:21;;;;;;;1.02;0.70;;;;;;;;;;5017470;28;20939;-62
2021/07/29 11:31:51;;;;;;;2.70;0.45;;;;;;;;;;5019361;28;20052;-63
2021/07/29 11:34:16;;;;;;;3.22;0.73;;;;;;;;;;5003475;28;20036;-60
2021/07/29 11:36:50;;;;;;;2.03;0.60;;;;;;;;;;5004073;28;20029;-62
2021/07/29 11:39:15;;;;;;;;;;;;;;;;;;5018696;28;20036;-62
2021/07/29 11:41:53;;;;;;;1.33;0.55;;;;;;;;;;5034895;28;19962;-63
2021/07/29 11:44:19;;;;;;;4.50;0.73;;;;;;;;;;5037585;28;20849;-60
2021/07/29 11:46:55;;;;;;;2.58;0.75;;;;;;;;;;5017395;28;20032;-62
2021/07/29 11:49:24;;;;;;;2.92;0.60;;;;;;;;;;5008372;28;20049;-62
2021/07/29 11:52:05;;;;;;;6.20;0.68;;;;;;;;;;4993138;28;20065;-61
2021/07/29 11:54:34;;;;;;;2.83;0.75;;;;;;;;;;4998863;28;20057;-60
2021/07/29 11:56:59;;;;;;;4.78;0.80;;;;;;;;;;4995702;28;20041;-60
2021/07/29 11:59:42;;;;;;;2.05;0.70;;;;;;;;;;4986535;28;20022;-63
2021/07/29 12:02:08;;;;;;;3.50;0.40;;;;;;;;;;4994884;28;20101;-62
2021/07/29 12:04:40;;;;;;;2.25;0.88;;;;;;;;;;4994512;28;21127;-62
2021/07/29 12:07:09;;;;;;;4.03;0.82;;;;;;;;;;4993117;28;20029;-62
2021/07/29 12:09:38;;;;;;;2.40;0.70;;;;;;;;;;4998099;28;20037;-61
2021/07/29 12:12:10;;;;;;;3.38;0.80;;;;;;;;;;5011420;28;20536;-61
2021/07/29 12:14:36;;;;;;;7.25;1.35;;;;;;;;;;4994424;28;20029;-61
2021/07/29 12:17:04;;;;;;;3.78;0.75;;;;;;;;;;4995940;28;20099;-63
2021/07/29 12:19:29;;;;;;;2.65;0.70;;;;;;;;;;5002518;28;20492;-62
2021/07/29 12:21:57;;;;;;;3.17;1.10;;;;;;;;;;4992308;28;20034;-61
2021/07/29 12:24:25;;;;;;;3.88;1.08;;;;;;;;;;4994526;28;20088;-61
2021/07/29 12:27:07;;;;;;;4.68;0.73;;;;;;;;;;4998513;28;20049;-60
2021/07/29 12:29:40;;;;;;;4.32;1.13;;;;;;;;;;4983740;28;20036;-60
2021/07/29 12:32:29;;;;;;;2.30;0.98;;;;;;;;;;4997532;28;20536;-62
2021/07/29 12:34:55;;;;;;;7.32;1.15;;;;;;;;;;4993094;28;20059;-60
2021/07/29 12:37:37;;;;;;;5.18;0.82;;;;;;;;;;4990690;28;20029;-61
2021/07/29 12:40:03;;;;;;;6.95;1.20;;;;;;;;;;4981908;28;20156;-60
2021/07/29 12:42:35;;;;;;;3.08;0.85;;;;;;;;;;4989098;28;20034;-62
2021/07/29 12:45:05;;;;;;;2.03;0.75;;;;;;;;;;4994805;28;20101;-61
2021/07/29 12:47:30;;;;;;;5.65;0.82;;;;;;;;;;4990859;28;20033;-62
2021/07/29 12:49:56;;;;;;;3.25;0.77;;;;;;;;;;5035183;28;20109;-59
2021/07/29 12:52:24;;;;;;;2.13;0.85;;;;;;;;;;5034494;28;20037;-61
2021/07/29 12:54:59;;;;;;;2.33;0.90;;;;;;;;;;5035096;28;20512;-62
2021/07/29 12:57:25;;;;;;;1.35;0.50;;;;;;;;;;5017270;28;20045;-59
2021/07/29 12:59:50;;;;;;;5.35;0.70;;;;;;;;;;5013590;28;20965;-61
2021/07/29 13:02:16;;;;;;;1.88;0.57;;;;;;;;;;5031115;28;20025;-61
2021/07/29 13:04:43;;;;;;;2.60;0.63;;;;;;;;;;5018048;28;20036;-61
2021/07/29 13:07:11;;;;;;;2.47;0.70;;;;;;;;;;5027586;28;20032;-60
2021/07/29 13:09:39;;;;;;;5.10;0.80;;;;;;;;;;4997576;28;20067;-58
2021/07/29 13:12:09;;;;;;;2.83;0.60;;;;;;;;;;4997974;28;20894;-59
2021/07/29 13:14:34;;;;;;;1.27;0.82;;;;;;;;;;5014560;28;20041;-62
2021/07/29 13:17:00;;;;;;;1.85;0.60;;;;;;;;;;5025517;28;20033;-60
2021/07/29 13:19:30;;;;;;;3.78;0.65;;;;;;;;;;5024943;28;20029;-60
2021/07/29 13:21:55;;;;;;;3.15;0.73;;;;;;;;;;5008842;28;20074;-62
2021/07/29 13:24:20;;;;;;;4.70;0.52;;;;;;;;;;4999057;28;20035;-63
2021/07/29 13:26:46;;;;;;;3.13;0.75;;;;;;;;;;4996060;28;20037;-60
2021/07/29 13:29:14;;;;;;;4.18;0.80;;;;;;;;;;5007939;28;20240;-60
2021/07/29 13:31:42;;;;;;;1.40;0.60;;;;;;;;;;5006136;28;20098;-59
2021/07/29 13:34:07;;;;;;;3.22;0.98;;;;;;;;;;5034932;28;20933;-61
2021/07/29 13:36:36;;;;;;;3.88;0.60;;;;;;;;;;4999374;28;22059;-60
2021/07/29 13:39:02;;;;;;;4.72;0.77;;;;;;;;;;5034596;28;20025;-60
2021/07/29 13:41:36;;;;;;;1.50;0.60;;;;;;;;;;5017668;28;20044;-59
2021/07/29 13:44:08;;;;;;;2.88;0.90;;;;;;;;;;5021803;28;20051;-61
2021/07/29 13:46:36;;;;;;;1.85;0.50;;;;;;;;;;5034282;28;20032;-61
2021/07/29 13:49:04;;;;;;;2.85;0.70;;;;;;;;;;5015611;28;20059;-61
2021/07/29 13:51:29;;;;;;;3.65;0.88;;;;;;;;;;5013583;28;20025;-60
2021/07/29 13:53:55;;;;;;;2.58;1.13;;;;;;;;;;5007857;28;20031;-59
2021/07/29 13:56:22;;;;;;;3.78;0.85;;;;;;;;;;5034671;28;20052;-59
2021/07/29 13:58:52;;;;;;;3.97;0.80;;;;;;;;;;5023838;28;20172;-60
2021/07/29 14:01:17;;;;;;;2.95;0.68;;;;;;;;;;5031977;28;20048;-59
2021/07/29 14:03:43;;;;;;;2.88;0.80;;;;;;;;;;5033273;28;20055;-61
2021/07/29 14:06:08;;;;;;;4.53;0.70;;;;;;;;;;5012895;28;20112;-62
2021/07/29 14:08:34;;;;;;;4.22;0.63;;;;;;;;;;5021118;28;20025;-60
2021/07/29 14:11:02;;;;;;;3.33;0.70;;;;;;;;;;5023108;28;20041;-61
2021/07/29 14:13:30;;;;;;;0.98;0.43;;;;;;;;;;5016717;28;20044;-59
2021/07/29 14:15:58;;;;;;;3.55;0.98;;;;;;;;;;5034213;28;20060;-59
2021/07/29 14:18:23;;;;;;;2.33;0.77;;;;;;;;;;5014342;28;20047;-59
2021/07/29 14:21:15;;;;;;;2.60;0.70;;;;;;;;;;5031407;28;20041;-62
2021/07/29 14:23:37;;;;;;;4.07;0.63;;;;;;;;;;5006001;28;20825;-60
2021/07/29 14:26:02;;;;;;;4.50;0.70;;;;;;;;;;5033629;28;20036;-61
2021/07/29 14:28:28;;;;;;;2.33;0.90;;;;;;;;;;5019743;28;20082;-59
2021/07/29 14:30:54;;;;;;;2.33;0.93;;;;;;;;;;5026016;28;20111;-60
2021/07/29 14:33:21;;;;;;;1.48;0.68;;;;;;;;;;5019772;28;20055;-61
2021/07/29 14:35:47;;;;;;;1.90;0.55;;;;;;;;;;5018146;28;20412;-60
2021/07/29 14:38:13;;;;;;;3.03;0.85;;;;;;;;;;5038450;28;20025;-61
2021/07/29 14:40:39;;;;;;;3.90;1.00;;;;;;;;;;5034907;28;20086;-61
2021/07/29 14:43:08;;;;;;;2.67;0.75;;;;;;;;;;5022421;28;20038;-60
2021/07/29 14:50:46;;;;;;;3.70;0.93;;;;;;;;;;5037624;28;20070;-64
2021/07/29 14:53:15;;;;;;;1.98;0.73;;;;;;;;;;5009862;28;20952;-60
2021/07/29 14:58:35;;;;;;;4.55;1.23;;;;;;;;;;5036862;28;20580;-61
2021/07/29 15:27:04;;;;;;;5.57;1.33;;;;;;;;;;5037265;28;20025;-62